createdAt,value
2018-11-13T00:00:12.373Z,15.50
2018-11-13T00:02:39.373Z,16.37
2018-11-13T00:05:06.375Z,14.53
2018-11-13T00:07:33.440Z,13.98
2018-11-13T00:10:00.411Z,14.70
2018-11-13T00:12:27.429Z,17.43
2018-11-13T00:14:54.379Z,15.60
2018-11-13T00:17:21.357Z,14.90
2018-11-13T00:19:48.526Z,17.43
2018-11-13T00:22:15.440Z,15.83
2018-11-13T00:24:42.606Z,16.20
2018-11-13T00:27:09.590Z,18.13
2018-11-13T00:29:36.950Z,23.57
2018-11-13T00:32:04.823Z,13.87
2018-11-13T00:34:31.816Z,15.68
2018-11-13T00:36:58.772Z,16.50
2018-11-13T00:39:33.666Z,18.73
2018-11-13T00:42:00.602Z,20.80
2018-11-13T00:44:27.543Z,17.62
2018-11-13T00:46:54.536Z,15.60
2018-11-13T00:49:21.540Z,14.10
2018-11-13T00:51:48.568Z,17.03
2018-11-13T00:54:15.538Z,15.18
2018-11-13T00:56:42.439Z,19.55
2018-11-13T00:59:09.473Z,15.50
2018-11-13T01:01:36.487Z,15.50
2018-11-13T01:04:03.464Z,15.43
2018-11-13T01:06:30.430Z,15.03
2018-11-13T01:08:57.834Z,14.40
2018-11-13T01:11:24.779Z,14.83
2018-11-13T01:13:51.761Z,16.83
2018-11-13T01:16:18.735Z,14.80
2018-11-13T01:18:45.701Z,14.73
2018-11-13T01:21:12.701Z,16.07
2018-11-13T01:23:39.715Z,14.70
2018-11-13T01:26:06.635Z,14.63
2018-11-13T01:28:33.691Z,14.05
2018-11-13T01:31:00.648Z,15.30
2018-11-13T01:33:27.630Z,14.87
2018-11-13T01:35:54.570Z,15.00
2018-11-13T01:38:21.502Z,15.70
2018-11-13T01:40:48.448Z,15.83
2018-11-13T01:43:15.373Z,16.30
2018-11-13T01:45:42.370Z,21.40
2018-11-13T01:48:09.779Z,14.67
2018-11-13T01:50:36.296Z,15.77
2018-11-13T01:53:03.236Z,14.93
2018-11-13T01:55:30.194Z,16.83
2018-11-13T01:57:57.161Z,16.77
2018-11-13T02:00:24.182Z,16.47
2018-11-13T02:02:52.507Z,13.83
2018-11-13T02:05:20.695Z,16.10
2018-11-13T02:07:47.859Z,15.27
2018-11-13T02:10:15.395Z,15.30
2018-11-13T02:12:42.449Z,17.73
2018-11-13T02:15:10.195Z,22.40
2018-11-13T02:17:37.325Z,15.10
2018-11-13T02:20:06.299Z,14.70
2018-11-13T02:22:33.347Z,16.37
2018-11-13T02:25:00.292Z,17.43
2018-11-13T02:27:27.525Z,16.80
2018-11-13T02:29:54.489Z,22.50
2018-11-13T02:32:21.524Z,18.47
2018-11-13T02:34:48.572Z,18.50
2018-11-13T02:37:15.553Z,16.50
2018-11-13T02:39:42.589Z,19.67
2018-11-13T02:42:09.565Z,18.33
2018-11-13T02:44:36.544Z,17.13
2018-11-13T02:47:03.643Z,17.50
2018-11-13T02:49:30.586Z,18.73
2018-11-13T02:51:57.646Z,16.67
2018-11-13T02:54:25.708Z,20.10
2018-11-13T02:56:52.616Z,19.33
2018-11-13T02:59:19.777Z,20.23
2018-11-13T03:01:46.754Z,22.30
2018-11-13T03:04:13.699Z,16.20
2018-11-13T03:06:40.667Z,17.17
2018-11-13T03:09:08.050Z,19.27
2018-11-13T03:11:35.107Z,22.20
2018-11-13T03:14:02.056Z,21.37
2018-11-13T03:16:29.044Z,17.97
2018-11-13T03:18:55.971Z,17.10
2018-11-13T03:21:23.005Z,14.10
2018-11-13T03:23:50.049Z,17.97
2018-11-13T03:26:17.211Z,16.23
2018-11-13T03:28:44.213Z,18.73
2018-11-13T03:31:11.215Z,17.57
2018-11-13T03:33:38.113Z,18.47
2018-11-13T03:36:05.073Z,23.37
2018-11-13T03:38:31.996Z,21.13
2018-11-13T03:40:58.992Z,22.93
2018-11-13T03:43:26.537Z,17.13
2018-11-13T03:45:53.495Z,16.23
2018-11-13T03:48:20.519Z,20.00
2018-11-13T03:50:47.477Z,25.00
2018-11-13T03:53:14.501Z,19.77
2018-11-13T03:55:42.147Z,25.63
2018-11-13T03:58:09.181Z,21.03
2018-11-13T04:00:36.167Z,19.70
2018-11-13T04:03:03.226Z,21.90
2018-11-13T04:05:30.172Z,22.67
2018-11-13T04:07:57.152Z,19.97
2018-11-13T04:10:24.587Z,23.30
2018-11-13T04:12:51.585Z,17.87
2018-11-13T04:15:21.730Z,17.33
2018-11-13T04:17:48.683Z,18.30
2018-11-13T04:20:16.932Z,19.90
2018-11-13T04:22:44.277Z,21.43
2018-11-13T04:25:11.239Z,23.13
2018-11-13T04:27:38.227Z,19.97
2018-11-13T04:30:07.593Z,23.27
2018-11-13T04:32:34.587Z,24.23
2018-11-13T04:35:01.551Z,26.40
2018-11-13T04:37:28.505Z,24.10
2018-11-13T04:39:56.195Z,27.43
2018-11-13T04:42:24.049Z,26.47
2018-11-13T04:44:51.697Z,26.73
2018-11-13T04:47:18.702Z,22.23
2018-11-13T04:49:45.688Z,21.00
2018-11-13T04:52:13.474Z,31.70
2018-11-13T04:54:40.395Z,63.30
2018-11-13T04:57:07.428Z,285.53
2018-11-13T04:59:34.414Z,251.63
2018-11-13T05:02:01.350Z,171.60
2018-11-13T05:04:28.605Z,157.23
2018-11-13T05:06:55.530Z,139.97
2018-11-13T05:09:22.537Z,119.03
2018-11-13T05:11:50.029Z,100.17
2018-11-13T05:14:16.992Z,68.27
2018-11-13T05:16:43.940Z,71.90
2018-11-13T05:19:10.948Z,64.07
2018-11-13T05:21:37.881Z,45.33
2018-11-13T05:24:04.851Z,31.33
2018-11-13T05:26:31.846Z,26.30
2018-11-13T05:28:58.790Z,27.73
2018-11-13T05:31:25.732Z,32.00
2018-11-13T05:33:53.334Z,27.50
2018-11-13T05:36:20.268Z,22.37
2018-11-13T05:38:47.246Z,35.17
2018-11-13T05:41:14.243Z,24.10
2018-11-13T05:43:41.290Z,26.60
2018-11-13T05:46:09.022Z,28.40
2018-11-13T05:48:35.988Z,26.73
2018-11-13T05:51:02.944Z,24.10
2018-11-13T05:53:31.990Z,34.97
2018-11-13T05:55:59.877Z,28.73
2018-11-13T05:58:26.843Z,29.13
2018-11-13T06:00:53.782Z,22.37
2018-11-13T06:03:20.747Z,23.30
2018-11-13T06:05:47.711Z,23.93
2018-11-13T06:08:17.344Z,23.47
2018-11-13T06:10:45.080Z,25.83
2018-11-13T06:13:12.690Z,22.83
2018-11-13T06:15:39.653Z,25.57
2018-11-13T06:18:07.850Z,29.73
2018-11-13T06:20:34.816Z,21.83
2018-11-13T06:23:01.853Z,23.67
2018-11-13T06:25:28.753Z,24.73
2018-11-13T06:27:55.730Z,24.70
2018-11-13T06:30:24.545Z,18.17
2018-11-13T06:32:51.744Z,26.57
2018-11-13T06:35:18.650Z,22.70
2018-11-13T06:37:45.603Z,34.40
2018-11-13T06:40:13.196Z,28.37
2018-11-13T06:42:43.444Z,30.47
2018-11-13T06:45:13.373Z,31.17
2018-11-13T06:47:40.830Z,27.73
2018-11-13T06:50:08.551Z,44.00
2018-11-13T06:52:35.636Z,32.27
2018-11-13T06:55:17.024Z,49.73
2018-11-13T06:57:44.641Z,28.43
2018-11-13T07:00:11.752Z,51.67
2018-11-13T07:02:39.133Z,23.77
2018-11-13T07:05:08.245Z,32.77
2018-11-13T07:07:35.204Z,24.57
2018-11-13T07:10:02.271Z,25.53
2018-11-13T07:12:29.313Z,43.53
2018-11-13T07:14:56.311Z,30.97
2018-11-13T07:17:26.859Z,55.40
2018-11-13T07:19:53.830Z,27.47
2018-11-13T07:22:20.856Z,27.20
2018-11-13T07:24:47.858Z,35.73
2018-11-13T07:27:14.835Z,27.23
2018-11-13T07:29:41.835Z,24.83
2018-11-13T07:32:08.811Z,26.23
2018-11-13T07:34:35.738Z,31.90
2018-11-13T07:37:02.730Z,29.10
2018-11-13T07:39:29.703Z,28.87
2018-11-13T07:41:56.692Z,28.80
2018-11-13T07:44:23.644Z,24.43
2018-11-13T07:46:50.749Z,35.30
2018-11-13T07:49:17.865Z,36.73
2018-11-13T07:51:44.951Z,24.63
2018-11-13T07:54:12.167Z,30.73
2018-11-13T07:56:39.165Z,28.33
2018-11-13T07:59:06.220Z,29.80
2018-11-13T08:01:33.247Z,34.33
2018-11-13T08:04:00.263Z,28.30
2018-11-13T08:06:27.517Z,36.03
2018-11-13T08:08:54.721Z,31.70
2018-11-13T08:11:21.732Z,42.50
2018-11-13T08:13:48.692Z,32.63
2018-11-13T08:16:15.703Z,30.30
2018-11-13T08:18:42.694Z,42.70
2018-11-13T08:21:09.728Z,37.40
2018-11-13T08:23:37.758Z,37.63
2018-11-13T08:26:05.312Z,33.73
2018-11-13T08:28:32.384Z,32.70
2018-11-13T08:30:59.411Z,35.33
2018-11-13T08:33:26.554Z,42.27
2018-11-13T08:35:53.624Z,29.73
2018-11-13T08:38:20.694Z,30.87
2018-11-13T08:40:47.692Z,37.27
2018-11-13T08:43:14.779Z,32.30
2018-11-13T08:45:41.755Z,44.73
2018-11-13T08:48:08.709Z,39.10
2018-11-13T08:50:35.754Z,31.07
2018-11-13T08:53:02.763Z,32.53
2018-11-13T08:55:29.769Z,32.03
2018-11-13T08:57:56.853Z,33.00
2018-11-13T09:00:23.869Z,36.93
2018-11-13T09:02:50.841Z,36.50
2018-11-13T09:05:18.005Z,34.83
2018-11-13T09:07:45.077Z,31.40
2018-11-13T09:10:13.178Z,38.63
2018-11-13T09:12:40.639Z,32.27
2018-11-13T09:15:09.496Z,33.93
2018-11-13T09:20:19.323Z,33.60
2018-11-13T09:22:46.557Z,33.53
2018-11-13T09:25:15.626Z,34.23
2018-11-13T09:27:42.763Z,81.10
2018-11-13T09:30:12.138Z,108.20
2018-11-13T09:32:39.735Z,85.87
2018-11-13T09:35:07.016Z,59.67
2018-11-13T09:37:57.454Z,47.77
2018-11-13T09:40:24.450Z,37.87
2018-11-13T09:42:53.139Z,82.73
2018-11-13T09:45:20.505Z,41.23
2018-11-13T09:47:47.664Z,53.97
2018-11-13T09:50:15.957Z,43.03
2018-11-13T09:52:44.301Z,42.03
2018-11-13T09:55:12.873Z,41.27
2018-11-13T09:57:39.857Z,38.63
2018-11-13T10:00:14.309Z,40.30
2018-11-13T10:02:42.617Z,30.63
2018-11-13T10:05:10.320Z,30.30
2018-11-13T10:07:36.688Z,39.07
2018-11-13T10:10:05.166Z,34.37
2018-11-13T10:12:32.180Z,31.30
2018-11-13T10:14:59.206Z,35.33
2018-11-13T10:17:26.254Z,30.23
2018-11-13T10:19:53.258Z,29.27
2018-11-13T10:22:20.251Z,31.70
2018-11-13T10:24:47.883Z,36.87
2018-11-13T10:27:14.908Z,25.07
2018-11-13T10:29:41.891Z,27.80
2018-11-13T10:32:08.841Z,30.03
2018-11-13T10:34:35.778Z,24.80
2018-11-13T10:37:02.767Z,25.20
2018-11-13T10:39:29.785Z,22.87
2018-11-13T10:41:56.729Z,25.47
2018-11-13T10:44:23.726Z,29.70
2018-11-13T10:46:50.666Z,28.87
2018-11-13T10:49:17.624Z,31.20
2018-11-13T10:51:44.709Z,29.37
2018-11-13T10:54:11.662Z,46.73
2018-11-13T10:56:38.774Z,30.03
2018-11-13T10:59:05.732Z,27.60
2018-11-13T11:01:38.340Z,22.97
2018-11-13T11:04:11.560Z,24.70
2018-11-13T11:06:38.557Z,29.57
2018-11-13T11:09:07.679Z,21.53
2018-11-13T11:11:34.773Z,20.83
2018-11-13T11:14:02.807Z,22.23
2018-11-13T11:16:29.702Z,21.40
2018-11-13T11:18:56.745Z,22.50
2018-11-13T11:21:23.584Z,21.60
2018-11-13T11:23:50.669Z,23.17
2018-11-13T11:26:17.644Z,20.23
2018-11-13T11:28:44.777Z,24.17
2018-11-13T11:31:11.789Z,22.10
2018-11-13T11:33:38.748Z,24.83
2018-11-13T11:36:05.716Z,31.03
2018-11-13T11:38:32.939Z,28.47
2018-11-13T11:40:59.874Z,23.13
2018-11-13T11:43:26.859Z,39.70
2018-11-13T11:45:53.958Z,29.00
2018-11-13T11:48:20.972Z,29.13
2018-11-13T11:50:47.942Z,31.57
2018-11-13T11:53:14.892Z,28.17
2018-11-13T11:55:41.856Z,35.47
2018-11-13T11:58:08.886Z,34.53
2018-11-13T12:00:35.946Z,31.20
2018-11-13T12:03:03.203Z,29.07
2018-11-13T12:05:30.270Z,30.43
2018-11-13T12:07:57.310Z,27.60
2018-11-13T12:10:24.284Z,29.60
2018-11-13T12:12:51.225Z,40.40
2018-11-13T12:15:18.171Z,31.50
2018-11-13T12:17:45.405Z,47.27
2018-11-13T12:20:13.471Z,65.50
2018-11-13T12:22:40.550Z,35.40
2018-11-13T12:25:10.344Z,35.37
2018-11-13T12:27:37.299Z,35.03
2018-11-13T12:30:07.606Z,35.03
2018-11-13T12:32:58.693Z,226.33
2018-11-13T12:35:25.875Z,38.93
2018-11-13T12:37:52.878Z,32.27
2018-11-13T12:40:21.326Z,30.23
2018-11-13T12:45:21.860Z,36.97
2018-11-13T12:47:49.052Z,53.00
2018-11-13T12:50:18.076Z,37.47
2018-11-13T12:52:47.842Z,34.83
2018-11-13T12:55:16.293Z,44.80
2018-11-13T12:57:43.298Z,30.93
2018-11-13T13:00:14.061Z,31.07
2018-11-13T13:02:41.061Z,39.33
2018-11-13T13:05:08.446Z,32.63
2018-11-13T13:07:35.486Z,32.63
2018-11-13T13:10:02.415Z,29.27
2018-11-13T13:12:29.407Z,30.33
2018-11-13T13:14:56.553Z,34.27
2018-11-13T13:17:23.441Z,37.53
2018-11-13T13:19:53.088Z,68.70
2018-11-13T13:22:20.170Z,36.17
2018-11-13T13:24:47.123Z,42.53
2018-11-13T13:27:14.161Z,43.53
2018-11-13T13:29:41.332Z,39.27
2018-11-13T13:32:08.302Z,37.03
2018-11-13T13:34:35.932Z,30.03
2018-11-13T13:37:02.949Z,27.70
2018-11-13T13:39:29.940Z,32.37
2018-11-13T13:41:57.824Z,31.20
2018-11-13T13:44:25.168Z,31.60
2018-11-13T13:46:52.237Z,36.93
2018-11-13T13:49:19.286Z,36.43
2018-11-13T13:51:46.303Z,25.30
2018-11-13T13:54:13.381Z,39.43
2018-11-13T13:56:40.385Z,56.57
2018-11-13T13:59:08.264Z,48.90
2018-11-13T14:01:35.242Z,36.40
2018-11-13T14:04:02.275Z,36.70
2018-11-13T14:06:29.395Z,26.97
2018-11-13T14:08:56.479Z,30.00
2018-11-13T14:11:24.115Z,41.90
2018-11-13T14:13:51.088Z,25.80
2018-11-13T14:16:18.187Z,29.60
2018-11-13T14:18:45.178Z,23.97
2018-11-13T14:21:12.192Z,26.13
2018-11-13T14:23:39.124Z,24.30
2018-11-13T14:26:06.162Z,22.80
2018-11-13T14:28:33.186Z,25.13
2018-11-13T14:31:00.131Z,29.77
2018-11-13T14:33:27.192Z,24.57
2018-11-13T14:35:54.223Z,25.30
2018-11-13T14:38:21.204Z,22.57
2018-11-13T14:40:49.137Z,36.17
2018-11-13T14:43:16.300Z,27.30
2018-11-13T14:45:43.815Z,21.33
2018-11-13T14:48:11.283Z,22.70
2018-11-13T14:50:39.575Z,29.10
2018-11-13T14:53:07.399Z,27.20
2018-11-13T14:55:36.740Z,24.60
2018-11-13T14:58:05.006Z,22.20
2018-11-13T15:00:33.049Z,20.77
2018-11-13T15:03:01.034Z,24.47
2018-11-13T15:05:28.647Z,19.17
2018-11-13T15:07:58.451Z,19.07
2018-11-13T15:10:31.864Z,23.47
2018-11-13T15:12:58.977Z,20.60
2018-11-13T15:15:26.164Z,16.80
2018-11-13T15:17:53.281Z,26.93
2018-11-13T15:20:20.241Z,22.00
2018-11-13T15:22:47.234Z,29.60
2018-11-13T15:25:15.936Z,16.53
2018-11-13T15:27:43.943Z,19.27
2018-11-13T15:30:19.847Z,17.40
2018-11-13T15:32:48.618Z,29.87
2018-11-13T15:35:15.861Z,89.47
2018-11-13T15:37:43.072Z,48.33
2018-11-13T15:40:14.579Z,48.27
2018-11-13T15:42:41.918Z,22.80
2018-11-13T15:45:10.322Z,31.57
2018-11-13T15:47:40.347Z,76.78
2018-11-13T15:50:12.104Z,34.33
2018-11-13T15:57:36.153Z,15.50
2018-11-13T16:00:03.208Z,13.87
2018-11-13T16:02:31.226Z,10.57
2018-11-13T16:04:59.253Z,33.87
2018-11-13T16:07:26.364Z,15.20
2018-11-13T16:09:55.025Z,10.47
2018-11-13T16:12:22.009Z,8.47
2018-11-13T16:14:49.944Z,18.73
2018-11-13T16:17:17.198Z,17.20
2018-11-13T16:19:44.242Z,15.93
2018-11-13T16:22:11.204Z,27.13
2018-11-13T16:24:38.737Z,16.63
2018-11-13T16:27:05.874Z,9.80
2018-11-13T16:29:34.029Z,10.73
2018-11-13T16:32:01.061Z,10.00
2018-11-13T16:34:30.470Z,38.94
2018-11-13T16:36:59.792Z,36.07
2018-11-13T16:39:26.836Z,8.70
2018-11-13T16:41:54.041Z,21.60
2018-11-13T16:44:21.428Z,14.07
2018-11-13T16:46:48.579Z,14.07
2018-11-13T16:49:15.609Z,9.57
2018-11-13T16:51:58.461Z,44.93
2018-11-13T16:54:30.134Z,19.43
2018-11-13T16:56:58.116Z,20.23
2018-11-13T16:59:25.147Z,7.47
2018-11-13T17:01:52.196Z,20.00
2018-11-13T17:04:19.188Z,10.97
2018-11-13T17:07:09.956Z,65.70
2018-11-13T17:09:37.301Z,10.37
2018-11-13T17:12:05.090Z,17.40
2018-11-13T17:14:33.851Z,10.30
2018-11-13T17:17:01.116Z,19.73
2018-11-13T17:19:28.353Z,11.43
2018-11-13T17:21:55.537Z,8.13
2018-11-13T17:24:22.617Z,7.37
2018-11-13T17:26:49.749Z,8.50
2018-11-13T17:29:16.750Z,8.90
2018-11-13T17:31:43.795Z,11.97
2018-11-13T17:34:10.827Z,18.57
2018-11-13T17:36:37.818Z,9.17
2018-11-13T17:39:08.349Z,11.13
2018-11-13T17:41:35.354Z,6.87
2018-11-13T17:44:02.490Z,7.73
2018-11-13T17:46:29.419Z,10.23
2018-11-13T17:48:56.418Z,7.17
2018-11-13T17:51:23.498Z,7.10
2018-11-13T17:53:50.527Z,9.33
2018-11-13T17:56:18.553Z,8.20
2018-11-13T17:58:45.591Z,15.33
2018-11-13T18:01:12.580Z,8.27
2018-11-13T18:03:40.365Z,15.13
2018-11-13T18:06:08.353Z,12.50
2018-11-13T18:08:35.358Z,14.07
2018-11-13T18:11:03.020Z,23.30
2018-11-13T18:13:31.096Z,28.40
2018-11-13T18:15:58.186Z,29.03
2018-11-13T18:18:25.978Z,20.53
2018-11-13T18:20:52.960Z,17.43
2018-11-13T18:23:20.079Z,18.03
2018-11-13T18:25:47.133Z,14.03
2018-11-13T18:28:14.341Z,14.23
2018-11-13T18:30:41.230Z,21.07
2018-11-13T18:33:08.709Z,55.00
2018-11-13T18:35:37.538Z,25.50
2018-11-13T18:38:07.263Z,5.77
2018-11-13T18:40:34.356Z,21.47
2018-11-13T18:43:02.037Z,22.20
2018-11-13T18:45:30.881Z,13.83
2018-11-13T18:47:58.245Z,16.27
2018-11-13T18:50:28.610Z,5.30
2018-11-13T18:52:56.301Z,15.50
2018-11-13T18:55:23.470Z,25.20
2018-11-13T18:57:50.636Z,10.40
2018-11-13T19:00:19.765Z,9.23
2018-11-13T19:02:46.874Z,9.80
2018-11-13T19:05:18.873Z,18.20
2018-11-13T19:07:46.308Z,13.73
2018-11-13T19:10:20.865Z,24.90
2018-11-13T19:12:48.983Z,47.70
2018-11-13T19:15:16.056Z,24.43
2018-11-13T19:17:43.421Z,15.67
2018-11-13T19:20:13.187Z,34.47
2018-11-13T19:22:40.743Z,7.47
2018-11-13T19:25:12.588Z,17.30
2018-11-13T19:27:40.169Z,13.97
2018-11-13T19:30:07.755Z,10.80
2018-11-13T19:32:35.680Z,7.43
2018-11-13T19:35:02.789Z,7.70
2018-11-13T19:37:30.968Z,9.20
2018-11-13T19:39:58.067Z,6.43
2018-11-13T19:47:20.649Z,31.57
2018-11-13T19:49:49.296Z,49.83
2018-11-13T19:52:17.603Z,18.60
2018-11-13T19:59:44.031Z,8.83
2018-11-13T20:02:13.299Z,19.00
2018-11-13T20:04:42.092Z,16.43
2018-11-13T20:07:12.773Z,13.63
2018-11-13T20:09:39.905Z,12.23
2018-11-13T20:12:07.834Z,19.37
2018-11-13T20:14:37.102Z,27.53
2018-11-13T20:17:05.107Z,19.90
2018-11-13T20:19:33.880Z,13.10
2018-11-13T20:24:34.991Z,27.80
2018-11-13T20:27:04.571Z,29.50
2018-11-13T20:29:31.701Z,11.77
2018-11-13T20:31:58.943Z,20.23
2018-11-13T20:34:26.157Z,11.90
2018-11-13T20:36:54.186Z,56.23
2018-11-13T20:39:21.688Z,22.22
2018-11-13T20:41:49.537Z,17.20
2018-11-13T20:44:16.557Z,12.53
2018-11-13T20:46:43.586Z,17.90
2018-11-13T20:49:10.645Z,13.07
2018-11-13T20:51:37.760Z,14.50
2018-11-13T20:54:04.814Z,15.00
2018-11-13T20:56:31.950Z,12.43
2018-11-13T20:58:59.026Z,11.43
2018-11-13T21:01:25.987Z,12.80
2018-11-13T21:03:53.096Z,9.13
2018-11-13T21:06:20.104Z,11.47
2018-11-13T21:08:48.678Z,14.37
2018-11-13T21:11:15.355Z,8.93
2018-11-13T21:13:42.719Z,50.83
2018-11-13T21:16:11.707Z,17.35
2018-11-13T21:18:38.785Z,13.00
2018-11-13T21:21:08.238Z,21.47
2018-11-13T21:23:35.688Z,11.43
2018-11-13T21:26:04.121Z,10.60
2018-11-13T21:28:31.304Z,10.33
2018-11-13T21:30:58.351Z,10.80
2018-11-13T21:33:27.701Z,12.40
2018-11-13T21:35:56.471Z,16.60
2018-11-13T21:38:23.506Z,11.43
2018-11-13T21:40:50.541Z,19.57
2018-11-13T21:43:17.563Z,14.57
2018-11-13T21:45:44.635Z,19.77
2018-11-13T21:48:11.654Z,11.30
2018-11-13T21:50:38.764Z,21.67
2018-11-13T21:53:05.852Z,14.53
2018-11-13T21:55:32.835Z,25.87
2018-11-13T21:57:59.856Z,21.97
2018-11-13T22:00:28.918Z,14.13
2018-11-13T22:03:05.928Z,19.50
2018-11-13T22:05:33.846Z,12.27
2018-11-13T22:08:00.957Z,12.17
2018-11-13T22:10:28.091Z,13.60
2018-11-13T22:12:56.105Z,14.47
2018-11-13T22:15:24.186Z,11.93
2018-11-13T22:17:51.183Z,11.57
2018-11-13T22:20:18.925Z,14.33
2018-11-13T22:22:46.770Z,31.67
2018-11-13T22:25:16.693Z,14.00
2018-11-13T22:27:44.662Z,13.53
2018-11-13T22:30:13.115Z,10.40
2018-11-13T22:32:40.221Z,18.20
2018-11-13T22:35:09.384Z,12.03
2018-11-13T22:37:36.656Z,33.33
2018-11-13T22:40:06.206Z,17.67
2018-11-13T22:42:33.195Z,15.70
2018-11-13T22:45:00.893Z,22.33
2018-11-13T22:47:27.886Z,81.87
2018-11-13T22:49:54.847Z,18.87
2018-11-13T22:52:21.850Z,18.57
2018-11-13T22:54:48.868Z,14.33
2018-11-13T22:57:16.876Z,15.90
2018-11-13T22:59:43.788Z,13.70
2018-11-13T23:02:10.765Z,14.27
2018-11-13T23:04:37.729Z,13.63
2018-11-13T23:07:04.972Z,15.57
2018-11-13T23:09:31.939Z,17.90
2018-11-13T23:11:58.963Z,18.33
2018-11-13T23:14:26.794Z,24.87
2018-11-13T23:16:53.770Z,12.90
2018-11-13T23:19:20.705Z,13.47
2018-11-13T23:21:47.713Z,17.03
2018-11-13T23:24:14.622Z,20.47
2018-11-13T23:26:42.336Z,16.80
2018-11-13T23:29:15.877Z,19.13
2018-11-13T23:31:44.218Z,18.63
2018-11-13T23:34:11.459Z,12.33
2018-11-13T23:36:38.492Z,25.20
2018-11-13T23:39:06.727Z,22.70
2018-11-13T23:41:34.250Z,16.43
2018-11-13T23:44:01.287Z,14.43
2018-11-13T23:46:28.230Z,43.33
2018-11-13T23:48:58.534Z,23.40
2018-11-13T23:51:25.508Z,13.03
2018-11-13T23:53:54.732Z,28.20
2018-11-13T23:56:22.416Z,14.20
2018-11-13T23:58:50.975Z,28.50
